sensor_id;sensor_type;location;lat;lon;timestamp;temperature;humidity
11112;DHT22;5609;49.466;8.468;2022-11-11T00:00:29;10.40;99.90
11112;DHT22;5609;49.466;8.468;2022-11-11T00:02:56;10.30;99.90
11112;DHT22;5609;49.466;8.468;2022-11-11T00:05:24;10.50;99.90
11112;DHT22;5609;49.466;8.468;2022-11-11T00:07:51;10.60;99.90
11112;DHT22;5609;49.466;8.468;2022-11-11T00:10:18;10.50;99.90
11112;DHT22;5609;49.466;8.468;2022-11-11T00:12:45;10.50;99.90
11112;DHT22;5609;49.466;8.468;2022-11-11T00:15:13;10.60;99.90
11112;DHT22;5609;49.466;8.468;2022-11-11T00:17:40;10.60;99.90
11112;DHT22;5609;49.466;8.468;2022-11-11T00:20:24;10.60;99.90
11112;DHT22;5609;49.466;8.468;2022-11-11T00:23:17;10.50;99.90
11112;DHT22;5609;49.466;8.468;2022-11-11T00:26:03;10.40;99.90
11112;DHT22;5609;49.466;8.468;2022-11-11T00:28:30;10.40;99.90
11112;DHT22;5609;49.466;8.468;2022-11-11T00:31:03;10.50;99.90
11112;DHT22;5609;49.466;8.468;2022-11-11T00:33:29;10.50;99.90
11112;DHT22;5609;49.466;8.468;2022-11-11T00:35:57;10.50;99.90
11112;DHT22;5609;49.466;8.468;2022-11-11T00:38:23;10.40;99.90
11112;DHT22;5609;49.466;8.468;2022-11-11T00:41:08;10.40;99.90
11112;DHT22;5609;49.466;8.468;2022-11-11T00:43:35;10.20;99.90
11112;DHT22;5609;49.466;8.468;2022-11-11T00:46:04;10.40;99.90
11112;DHT22;5609;49.466;8.468;2022-11-11T00:48:48;10.50;99.90
11112;DHT22;5609;49.466;8.468;2022-11-11T00:51:32;10.50;99.90
11112;DHT22;5609;49.466;8.468;2022-11-11T00:53:59;10.50;99.90
11112;DHT22;5609;49.466;8.468;2022-11-11T00:56:26;10.50;99.90
11112;DHT22;5609;49.466;8.468;2022-11-11T00:58:53;10.40;99.90
11112;DHT22;5609;49.466;8.468;2022-11-11T01:01:21;10.50;99.90
11112;DHT22;5609;49.466;8.468;2022-11-11T01:03:48;10.40;99.90
11112;DHT22;5609;49.466;8.468;2022-11-11T01:06:14;10.50;99.90
11112;DHT22;5609;49.466;8.468;2022-11-11T01:08:41;10.50;99.90
11112;DHT22;5609;49.466;8.468;2022-11-11T01:11:12;10.40;99.90
11112;DHT22;5609;49.466;8.468;2022-11-11T01:13:40;10.40;99.90
11112;DHT22;5609;49.466;8.468;2022-11-11T01:16:10;10.40;99.90
11112;DHT22;5609;49.466;8.468;2022-11-11T01:18:39;10.50;99.90
11112;DHT22;5609;49.466;8.468;2022-11-11T01:21:09;10.70;99.90
11112;DHT22;5609;49.466;8.468;2022-11-11T01:23:38;10.70;99.90
11112;DHT22;5609;49.466;8.468;2022-11-11T01:26:08;10.70;99.90
11112;DHT22;5609;49.466;8.468;2022-11-11T01:28:35;10.70;99.90
11112;DHT22;5609;49.466;8.468;2022-11-11T01:31:03;10.60;99.90
11112;DHT22;5609;49.466;8.468;2022-11-11T01:33:30;10.60;99.90
11112;DHT22;5609;49.466;8.468;2022-11-11T01:36:04;10.40;99.90
11112;DHT22;5609;49.466;8.468;2022-11-11T01:38:31;10.30;99.90
11112;DHT22;5609;49.466;8.468;2022-11-11T01:40:57;10.20;99.90
11112;DHT22;5609;49.466;8.468;2022-11-11T01:43:24;10.10;99.90
11112;DHT22;5609;49.466;8.468;2022-11-11T01:45:54;10.00;99.90
11112;DHT22;5609;49.466;8.468;2022-11-11T01:48:27;10.10;99.90
11112;DHT22;5609;49.466;8.468;2022-11-11T01:51:19;10.20;99.90
11112;DHT22;5609;49.466;8.468;2022-11-11T01:53:49;10.30;99.90
11112;DHT22;5609;49.466;8.468;2022-11-11T01:56:18;10.40;99.90
11112;DHT22;5609;49.466;8.468;2022-11-11T01:58:45;10.50;99.90
11112;DHT22;5609;49.466;8.468;2022-11-11T02:01:12;10.50;99.90
11112;DHT22;5609;49.466;8.468;2022-11-11T02:03:41;10.50;99.90
11112;DHT22;5609;49.466;8.468;2022-11-11T02:06:30;10.40;99.90
11112;DHT22;5609;49.466;8.468;2022-11-11T02:08:56;10.40;99.90
11112;DHT22;5609;49.466;8.468;2022-11-11T02:11:24;10.50;99.90
11112;DHT22;5609;49.466;8.468;2022-11-11T02:14:09;10.50;99.90
11112;DHT22;5609;49.466;8.468;2022-11-11T02:16:53;10.40;99.90
11112;DHT22;5609;49.466;8.468;2022-11-11T02:19:28;10.30;99.90
11112;DHT22;5609;49.466;8.468;2022-11-11T02:22:00;10.20;99.90
11112;DHT22;5609;49.466;8.468;2022-11-11T02:24:30;10.20;99.90
11112;DHT22;5609;49.466;8.468;2022-11-11T02:26:57;10.20;99.90
11112;DHT22;5609;49.466;8.468;2022-11-11T02:29:26;10.10;99.90
11112;DHT22;5609;49.466;8.468;2022-11-11T02:31:54;10.20;99.90
11112;DHT22;5609;49.466;8.468;2022-11-11T02:34:28;10.30;99.90
11112;DHT22;5609;49.466;8.468;2022-11-11T02:36:54;10.30;99.90
11112;DHT22;5609;49.466;8.468;2022-11-11T02:39:21;10.30;99.90
11112;DHT22;5609;49.466;8.468;2022-11-11T02:41:51;10.40;99.90
11112;DHT22;5609;49.466;8.468;2022-11-11T02:44:24;10.50;99.90
11112;DHT22;5609;49.466;8.468;2022-11-11T02:46:51;10.50;99.90
11112;DHT22;5609;49.466;8.468;2022-11-11T02:49:18;10.40;99.90
11112;DHT22;5609;49.466;8.468;2022-11-11T02:51:44;10.50;99.90
11112;DHT22;5609;49.466;8.468;2022-11-11T02:54:12;10.40;99.90
11112;DHT22;5609;49.466;8.468;2022-11-11T02:56:39;10.40;99.90
11112;DHT22;5609;49.466;8.468;2022-11-11T02:59:24;10.40;99.90
11112;DHT22;5609;49.466;8.468;2022-11-11T03:01:51;10.50;99.90
11112;DHT22;5609;49.466;8.468;2022-11-11T03:04:17;10.50;99.90
11112;DHT22;5609;49.466;8.468;2022-11-11T03:06:44;10.40;99.90
11112;DHT22;5609;49.466;8.468;2022-11-11T03:09:11;10.40;99.90
11112;DHT22;5609;49.466;8.468;2022-11-11T03:11:38;10.30;99.90
11112;DHT22;5609;49.466;8.468;2022-11-11T03:14:05;10.20;99.90
11112;DHT22;5609;49.466;8.468;2022-11-11T03:16:34;10.10;99.90
11112;DHT22;5609;49.466;8.468;2022-11-11T03:19:18;10.10;99.90
11112;DHT22;5609;49.466;8.468;2022-11-11T03:21:45;10.20;99.90
11112;DHT22;5609;49.466;8.468;2022-11-11T03:24:10;10.20;99.90
11112;DHT22;5609;49.466;8.468;2022-11-11T03:26:37;10.10;99.90
11112;DHT22;5609;49.466;8.468;2022-11-11T03:29:03;10.00;99.90
11112;DHT22;5609;49.466;8.468;2022-11-11T03:31:30;9.80;99.90
11112;DHT22;5609;49.466;8.468;2022-11-11T03:33:58;9.80;99.90
11112;DHT22;5609;49.466;8.468;2022-11-11T03:36:42;10.00;99.90
11112;DHT22;5609;49.466;8.468;2022-11-11T03:39:29;10.10;99.90
11112;DHT22;5609;49.466;8.468;2022-11-11T03:41:56;10.10;99.90
11112;DHT22;5609;49.466;8.468;2022-11-11T03:44:23;10.00;99.90
11112;DHT22;5609;49.466;8.468;2022-11-11T03:46:49;10.10;99.90
11112;DHT22;5609;49.466;8.468;2022-11-11T03:49:17;10.10;99.90
11112;DHT22;5609;49.466;8.468;2022-11-11T03:51:44;10.10;99.90
11112;DHT22;5609;49.466;8.468;2022-11-11T03:54:11;10.20;99.90
11112;DHT22;5609;49.466;8.468;2022-11-11T03:56:38;10.20;99.90
11112;DHT22;5609;49.466;8.468;2022-11-11T03:59:05;10.20;99.90
11112;DHT22;5609;49.466;8.468;2022-11-11T04:01:31;10.20;99.90
11112;DHT22;5609;49.466;8.468;2022-11-11T04:04:15;10.10;99.90
11112;DHT22;5609;49.466;8.468;2022-11-11T04:07:01;10.00;99.90
11112;DHT22;5609;49.466;8.468;2022-11-11T04:09:45;10.10;99.90
11112;DHT22;5609;49.466;8.468;2022-11-11T04:12:31;10.00;99.90
11112;DHT22;5609;49.466;8.468;2022-11-11T04:15:18;10.10;99.90
11112;DHT22;5609;49.466;8.468;2022-11-11T04:18:02;10.00;99.90
11112;DHT22;5609;49.466;8.468;2022-11-11T04:20:29;10.10;99.90
11112;DHT22;5609;49.466;8.468;2022-11-11T04:23:15;10.00;99.90
11112;DHT22;5609;49.466;8.468;2022-11-11T04:25:42;9.80;99.90
11112;DHT22;5609;49.466;8.468;2022-11-11T04:28:13;9.80;99.90
11112;DHT22;5609;49.466;8.468;2022-11-11T04:30:58;10.00;99.90
11112;DHT22;5609;49.466;8.468;2022-11-11T04:33:25;10.10;99.90
11112;DHT22;5609;49.466;8.468;2022-11-11T04:35:50;10.20;99.90
11112;DHT22;5609;49.466;8.468;2022-11-11T04:38:19;10.30;99.90
11112;DHT22;5609;49.466;8.468;2022-11-11T04:41:03;10.40;99.90
11112;DHT22;5609;49.466;8.468;2022-11-11T04:43:31;10.40;99.90
11112;DHT22;5609;49.466;8.468;2022-11-11T04:46:17;10.40;99.90
11112;DHT22;5609;49.466;8.468;2022-11-11T04:48:43;10.50;99.90
11112;DHT22;5609;49.466;8.468;2022-11-11T04:51:10;10.30;99.90
11112;DHT22;5609;49.466;8.468;2022-11-11T04:53:38;10.20;99.90
11112;DHT22;5609;49.466;8.468;2022-11-11T04:56:06;10.20;99.90
11112;DHT22;5609;49.466;8.468;2022-11-11T04:58:51;10.30;99.90
11112;DHT22;5609;49.466;8.468;2022-11-11T05:01:37;10.30;99.90
11112;DHT22;5609;49.466;8.468;2022-11-11T05:04:21;10.10;99.90
11112;DHT22;5609;49.466;8.468;2022-11-11T05:06:48;10.00;99.90
11112;DHT22;5609;49.466;8.468;2022-11-11T05:09:34;9.90;99.90
11112;DHT22;5609;49.466;8.468;2022-11-11T05:12:01;9.90;99.90
11112;DHT22;5609;49.466;8.468;2022-11-11T05:14:27;9.90;99.90
11112;DHT22;5609;49.466;8.468;2022-11-11T05:17:12;10.00;99.90
11112;DHT22;5609;49.466;8.468;2022-11-11T05:19:56;9.90;99.90
11112;DHT22;5609;49.466;8.468;2022-11-11T05:22:42;9.80;99.90
11112;DHT22;5609;49.466;8.468;2022-11-11T05:25:11;9.80;99.90
11112;DHT22;5609;49.466;8.468;2022-11-11T05:27:55;10.00;99.90
11112;DHT22;5609;49.466;8.468;2022-11-11T05:30:23;10.00;99.90
11112;DHT22;5609;49.466;8.468;2022-11-11T05:32:50;9.90;99.90
11112;DHT22;5609;49.466;8.468;2022-11-11T05:35:17;9.80;99.90
11112;DHT22;5609;49.466;8.468;2022-11-11T05:37:44;9.70;99.90
11112;DHT22;5609;49.466;8.468;2022-11-11T05:40:34;9.60;99.90
11112;DHT22;5609;49.466;8.468;2022-11-11T05:43:01;9.60;99.90
11112;DHT22;5609;49.466;8.468;2022-11-11T05:45:28;9.50;99.90
11112;DHT22;5609;49.466;8.468;2022-11-11T05:47:56;9.40;99.90
11112;DHT22;5609;49.466;8.468;2022-11-11T05:50:25;9.40;99.90
11112;DHT22;5609;49.466;8.468;2022-11-11T05:52:53;9.40;99.90
11112;DHT22;5609;49.466;8.468;2022-11-11T05:55:20;9.50;99.90
11112;DHT22;5609;49.466;8.468;2022-11-11T05:57:49;9.50;99.90
11112;DHT22;5609;49.466;8.468;2022-11-11T06:00:16;9.60;99.90
11112;DHT22;5609;49.466;8.468;2022-11-11T06:02:43;9.40;99.90
11112;DHT22;5609;49.466;8.468;2022-11-11T06:05:10;9.50;99.90
11112;DHT22;5609;49.466;8.468;2022-11-11T06:07:37;9.70;99.90
11112;DHT22;5609;49.466;8.468;2022-11-11T06:10:06;9.80;99.90
11112;DHT22;5609;49.466;8.468;2022-11-11T06:12:51;10.10;99.90
11112;DHT22;5609;49.466;8.468;2022-11-11T06:15:35;10.10;99.90
11112;DHT22;5609;49.466;8.468;2022-11-11T06:18:03;10.10;99.90
11112;DHT22;5609;49.466;8.468;2022-11-11T06:20:30;10.10;99.90
11112;DHT22;5609;49.466;8.468;2022-11-11T06:23:00;10.20;99.90
11112;DHT22;5609;49.466;8.468;2022-11-11T06:25:27;10.20;99.90
11112;DHT22;5609;49.466;8.468;2022-11-11T06:28:14;10.20;99.90
11112;DHT22;5609;49.466;8.468;2022-11-11T06:30:41;10.10;99.90
11112;DHT22;5609;49.466;8.468;2022-11-11T06:33:08;10.20;99.90
11112;DHT22;5609;49.466;8.468;2022-11-11T06:35:37;10.20;99.90
11112;DHT22;5609;49.466;8.468;2022-11-11T06:38:04;10.30;99.90
11112;DHT22;5609;49.466;8.468;2022-11-11T06:40:32;10.20;99.90
11112;DHT22;5609;49.466;8.468;2022-11-11T06:42:59;10.10;99.90
11112;DHT22;5609;49.466;8.468;2022-11-11T06:45:28;10.20;99.90
11112;DHT22;5609;49.466;8.468;2022-11-11T06:47:55;10.20;99.90
11112;DHT22;5609;49.466;8.468;2022-11-11T06:50:22;10.20;99.90
11112;DHT22;5609;49.466;8.468;2022-11-11T06:52:49;10.10;99.90
11112;DHT22;5609;49.466;8.468;2022-11-11T06:55:15;9.90;99.90
11112;DHT22;5609;49.466;8.468;2022-11-11T06:57:42;9.80;99.90
11112;DHT22;5609;49.466;8.468;2022-11-11T07:00:10;9.70;99.90
11112;DHT22;5609;49.466;8.468;2022-11-11T07:02:38;9.70;99.90
11112;DHT22;5609;49.466;8.468;2022-11-11T07:05:05;9.70;99.90
11112;DHT22;5609;49.466;8.468;2022-11-11T07:07:32;9.70;99.90
11112;DHT22;5609;49.466;8.468;2022-11-11T07:09:59;9.80;99.90
11112;DHT22;5609;49.466;8.468;2022-11-11T07:12:26;9.80;99.90
11112;DHT22;5609;49.466;8.468;2022-11-11T07:14:53;9.90;99.90
11112;DHT22;5609;49.466;8.468;2022-11-11T07:17:20;10.00;99.90
11112;DHT22;5609;49.466;8.468;2022-11-11T07:19:48;9.90;99.90
11112;DHT22;5609;49.466;8.468;2022-11-11T07:22:14;10.00;99.90
11112;DHT22;5609;49.466;8.468;2022-11-11T07:24:41;10.00;99.90
11112;DHT22;5609;49.466;8.468;2022-11-11T07:27:08;9.90;99.90
11112;DHT22;5609;49.466;8.468;2022-11-11T07:29:34;9.80;99.90
11112;DHT22;5609;49.466;8.468;2022-11-11T07:32:01;9.80;99.90
11112;DHT22;5609;49.466;8.468;2022-11-11T07:34:28;9.70;99.90
11112;DHT22;5609;49.466;8.468;2022-11-11T07:36:56;9.60;99.90
11112;DHT22;5609;49.466;8.468;2022-11-11T07:39:23;9.70;99.90
11112;DHT22;5609;49.466;8.468;2022-11-11T07:41:49;9.70;99.90
11112;DHT22;5609;49.466;8.468;2022-11-11T07:44:16;9.70;99.90
11112;DHT22;5609;49.466;8.468;2022-11-11T07:46:43;9.50;99.90
11112;DHT22;5609;49.466;8.468;2022-11-11T07:49:09;9.50;99.90
11112;DHT22;5609;49.466;8.468;2022-11-11T07:51:36;9.50;99.90
11112;DHT22;5609;49.466;8.468;2022-11-11T07:54:05;9.40;99.90
11112;DHT22;5609;49.466;8.468;2022-11-11T07:56:32;9.60;99.90
11112;DHT22;5609;49.466;8.468;2022-11-11T07:58:58;9.70;99.90
11112;DHT22;5609;49.466;8.468;2022-11-11T08:01:25;9.80;99.90
11112;DHT22;5609;49.466;8.468;2022-11-11T08:03:52;9.90;99.90
11112;DHT22;5609;49.466;8.468;2022-11-11T08:06:20;9.80;99.90
11112;DHT22;5609;49.466;8.468;2022-11-11T08:08:48;9.90;99.90
11112;DHT22;5609;49.466;8.468;2022-11-11T08:11:16;9.90;99.90
11112;DHT22;5609;49.466;8.468;2022-11-11T08:14:03;10.00;99.90
11112;DHT22;5609;49.466;8.468;2022-11-11T08:16:29;10.00;99.90
11112;DHT22;5609;49.466;8.468;2022-11-11T08:18:55;9.90;99.90
11112;DHT22;5609;49.466;8.468;2022-11-11T08:21:23;9.90;99.90
11112;DHT22;5609;49.466;8.468;2022-11-11T08:23:50;10.00;99.90
11112;DHT22;5609;49.466;8.468;2022-11-11T08:26:19;10.00;99.90
11112;DHT22;5609;49.466;8.468;2022-11-11T08:28:47;10.10;99.90
11112;DHT22;5609;49.466;8.468;2022-11-11T08:31:14;10.10;99.90
11112;DHT22;5609;49.466;8.468;2022-11-11T08:33:41;10.20;99.90
11112;DHT22;5609;49.466;8.468;2022-11-11T08:36:08;10.30;99.90
11112;DHT22;5609;49.466;8.468;2022-11-11T08:38:36;10.30;99.90
11112;DHT22;5609;49.466;8.468;2022-11-11T08:41:04;10.20;99.90
11112;DHT22;5609;49.466;8.468;2022-11-11T08:43:32;10.30;99.90
11112;DHT22;5609;49.466;8.468;2022-11-11T08:46:00;10.30;99.90
11112;DHT22;5609;49.466;8.468;2022-11-11T08:48:28;10.20;99.90
11112;DHT22;5609;49.466;8.468;2022-11-11T08:50:56;10.00;99.90
11112;DHT22;5609;49.466;8.468;2022-11-11T08:53:22;10.00;99.90
11112;DHT22;5609;49.466;8.468;2022-11-11T08:55:49;9.80;99.90
11112;DHT22;5609;49.466;8.468;2022-11-11T08:58:16;9.90;99.90
11112;DHT22;5609;49.466;8.468;2022-11-11T09:00:44;10.30;99.90
11112;DHT22;5609;49.466;8.468;2022-11-11T09:03:11;10.40;99.90
11112;DHT22;5609;49.466;8.468;2022-11-11T09:05:39;10.50;99.90
11112;DHT22;5609;49.466;8.468;2022-11-11T09:08:07;10.70;99.90
11112;DHT22;5609;49.466;8.468;2022-11-11T09:10:34;10.70;99.90
11112;DHT22;5609;49.466;8.468;2022-11-11T09:13:01;10.50;99.90
11112;DHT22;5609;49.466;8.468;2022-11-11T09:15:29;10.50;99.90
11112;DHT22;5609;49.466;8.468;2022-11-11T09:17:57;10.50;99.90
11112;DHT22;5609;49.466;8.468;2022-11-11T09:20:24;10.60;99.90
11112;DHT22;5609;49.466;8.468;2022-11-11T09:22:51;10.70;99.90
11112;DHT22;5609;49.466;8.468;2022-11-11T09:25:19;10.70;99.90
11112;DHT22;5609;49.466;8.468;2022-11-11T09:27:53;10.70;99.90
11112;DHT22;5609;49.466;8.468;2022-11-11T09:30:20;10.70;99.90
11112;DHT22;5609;49.466;8.468;2022-11-11T09:32:46;10.90;99.90
11112;DHT22;5609;49.466;8.468;2022-11-11T09:35:15;10.90;99.90
11112;DHT22;5609;49.466;8.468;2022-11-11T09:37:52;10.90;99.90
11112;DHT22;5609;49.466;8.468;2022-11-11T09:40:21;11.10;99.90
11112;DHT22;5609;49.466;8.468;2022-11-11T09:42:58;11.20;99.90
11112;DHT22;5609;49.466;8.468;2022-11-11T09:45:30;11.20;99.90
11112;DHT22;5609;49.466;8.468;2022-11-11T09:48:05;11.20;99.90
11112;DHT22;5609;49.466;8.468;2022-11-11T09:50:36;11.20;99.90
11112;DHT22;5609;49.466;8.468;2022-11-11T09:53:12;11.30;99.90
11112;DHT22;5609;49.466;8.468;2022-11-11T09:55:46;11.50;99.90
11112;DHT22;5609;49.466;8.468;2022-11-11T09:58:19;11.50;99.90
11112;DHT22;5609;49.466;8.468;2022-11-11T10:00:54;11.40;99.90
11112;DHT22;5609;49.466;8.468;2022-11-11T10:03:23;11.50;99.90
11112;DHT22;5609;49.466;8.468;2022-11-11T10:05:58;11.50;99.90
11112;DHT22;5609;49.466;8.468;2022-11-11T10:08:28;11.60;99.90
11112;DHT22;5609;49.466;8.468;2022-11-11T10:10:59;11.60;99.90
11112;DHT22;5609;49.466;8.468;2022-11-11T10:13:28;11.60;99.90
11112;DHT22;5609;49.466;8.468;2022-11-11T10:16:02;11.50;99.90
11112;DHT22;5609;49.466;8.468;2022-11-11T10:18:42;11.20;99.90
11112;DHT22;5609;49.466;8.468;2022-11-11T10:21:18;11.40;99.90
11112;DHT22;5609;49.466;8.468;2022-11-11T10:23:51;11.50;99.90
11112;DHT22;5609;49.466;8.468;2022-11-11T10:26:30;11.40;99.90
11112;DHT22;5609;49.466;8.468;2022-11-11T10:28:59;11.50;99.90
11112;DHT22;5609;49.466;8.468;2022-11-11T10:31:27;11.60;99.90
11112;DHT22;5609;49.466;8.468;2022-11-11T10:33:58;11.50;99.90
11112;DHT22;5609;49.466;8.468;2022-11-11T10:36:29;11.50;99.90
11112;DHT22;5609;49.466;8.468;2022-11-11T10:38:59;11.40;99.90
11112;DHT22;5609;49.466;8.468;2022-11-11T10:41:30;11.30;99.90
11112;DHT22;5609;49.466;8.468;2022-11-11T10:43:59;11.40;99.90
11112;DHT22;5609;49.466;8.468;2022-11-11T10:46:28;11.30;99.90
11112;DHT22;5609;49.466;8.468;2022-11-11T10:48:59;11.30;99.90
11112;DHT22;5609;49.466;8.468;2022-11-11T10:51:34;11.30;99.90
11112;DHT22;5609;49.466;8.468;2022-11-11T10:54:05;11.40;99.90
11112;DHT22;5609;49.466;8.468;2022-11-11T10:56:37;11.40;99.90
11112;DHT22;5609;49.466;8.468;2022-11-11T10:59:13;11.50;99.90
11112;DHT22;5609;49.466;8.468;2022-11-11T11:01:48;11.40;99.90
11112;DHT22;5609;49.466;8.468;2022-11-11T11:04:25;11.30;99.90
11112;DHT22;5609;49.466;8.468;2022-11-11T11:06:56;11.40;99.90
11112;DHT22;5609;49.466;8.468;2022-11-11T11:09:28;11.40;99.90
11112;DHT22;5609;49.466;8.468;2022-11-11T11:11:58;11.40;99.90
11112;DHT22;5609;49.466;8.468;2022-11-11T11:14:29;11.40;99.90
11112;DHT22;5609;49.466;8.468;2022-11-11T11:17:00;11.50;99.90
11112;DHT22;5609;49.466;8.468;2022-11-11T11:19:33;11.50;99.90
11112;DHT22;5609;49.466;8.468;2022-11-11T11:22:02;11.50;99.90
11112;DHT22;5609;49.466;8.468;2022-11-11T11:24:30;11.50;99.90
11112;DHT22;5609;49.466;8.468;2022-11-11T11:26:58;11.70;99.90
11112;DHT22;5609;49.466;8.468;2022-11-11T11:29:28;11.70;99.90
11112;DHT22;5609;49.466;8.468;2022-11-11T11:31:55;11.80;99.90
11112;DHT22;5609;49.466;8.468;2022-11-11T11:34:44;11.60;99.90
11112;DHT22;5609;49.466;8.468;2022-11-11T11:37:13;11.60;99.90
11112;DHT22;5609;49.466;8.468;2022-11-11T11:39:40;11.60;99.90
11112;DHT22;5609;49.466;8.468;2022-11-11T11:42:07;11.40;99.90
11112;DHT22;5609;49.466;8.468;2022-11-11T11:44:36;11.60;99.90
11112;DHT22;5609;49.466;8.468;2022-11-11T11:47:22;11.60;99.90
11112;DHT22;5609;49.466;8.468;2022-11-11T11:50:15;11.70;99.90
11112;DHT22;5609;49.466;8.468;2022-11-11T11:52:53;11.80;99.90
11112;DHT22;5609;49.466;8.468;2022-11-11T11:55:27;11.50;99.90
11112;DHT22;5609;49.466;8.468;2022-11-11T11:58:08;11.40;99.90
11112;DHT22;5609;49.466;8.468;2022-11-11T12:00:45;11.70;99.90
11112;DHT22;5609;49.466;8.468;2022-11-11T12:03:45;11.80;99.90
11112;DHT22;5609;49.466;8.468;2022-11-11T12:06:17;11.90;99.90
11112;DHT22;5609;49.466;8.468;2022-11-11T12:08:59;12.00;99.90
11112;DHT22;5609;49.466;8.468;2022-11-11T12:11:32;11.80;99.90
11112;DHT22;5609;49.466;8.468;2022-11-11T12:14:16;11.90;99.90
11112;DHT22;5609;49.466;8.468;2022-11-11T12:16:52;11.80;99.90
11112;DHT22;5609;49.466;8.468;2022-11-11T12:19:34;11.80;99.90
11112;DHT22;5609;49.466;8.468;2022-11-11T12:22:06;11.80;99.90
11112;DHT22;5609;49.466;8.468;2022-11-11T12:24:48;11.70;99.90
11112;DHT22;5609;49.466;8.468;2022-11-11T12:27:24;11.70;99.90
11112;DHT22;5609;49.466;8.468;2022-11-11T12:30:03;11.80;99.90
11112;DHT22;5609;49.466;8.468;2022-11-11T12:32:57;11.80;99.90
11112;DHT22;5609;49.466;8.468;2022-11-11T12:35:37;12.00;99.90
11112;DHT22;5609;49.466;8.468;2022-11-11T12:38:19;12.00;99.90
11112;DHT22;5609;49.466;8.468;2022-11-11T12:40:59;11.80;99.90
11112;DHT22;5609;49.466;8.468;2022-11-11T12:43:37;11.90;99.90
11112;DHT22;5609;49.466;8.468;2022-11-11T12:46:14;11.90;99.90
11112;DHT22;5609;49.466;8.468;2022-11-11T12:49:05;11.90;99.90
11112;DHT22;5609;49.466;8.468;2022-11-11T12:51:47;11.80;99.90
11112;DHT22;5609;49.466;8.468;2022-11-11T12:54:24;11.70;99.90
11112;DHT22;5609;49.466;8.468;2022-11-11T12:56:59;11.80;99.90
11112;DHT22;5609;49.466;8.468;2022-11-11T12:59:38;11.90;99.90
11112;DHT22;5609;49.466;8.468;2022-11-11T13:02:20;12.00;99.90
11112;DHT22;5609;49.466;8.468;2022-11-11T13:04:57;12.00;99.90
11112;DHT22;5609;49.466;8.468;2022-11-11T13:10:26;11.60;99.90
11112;DHT22;5609;49.466;8.468;2022-11-11T13:13:09;11.60;99.90
11112;DHT22;5609;49.466;8.468;2022-11-11T13:15:39;11.30;99.90
11112;DHT22;5609;49.466;8.468;2022-11-11T13:18:10;11.30;99.90
11112;DHT22;5609;49.466;8.468;2022-11-11T13:20:49;11.20;99.90
11112;DHT22;5609;49.466;8.468;2022-11-11T13:23:18;11.00;99.90
11112;DHT22;5609;49.466;8.468;2022-11-11T13:25:47;10.90;99.90
11112;DHT22;5609;49.466;8.468;2022-11-11T13:28:19;10.90;99.90
11112;DHT22;5609;49.466;8.468;2022-11-11T13:31:05;10.40;99.90
11112;DHT22;5609;49.466;8.468;2022-11-11T13:33:38;10.30;99.90
11112;DHT22;5609;49.466;8.468;2022-11-11T13:36:07;10.30;99.90
11112;DHT22;5609;49.466;8.468;2022-11-11T13:38:37;10.40;99.90
11112;DHT22;5609;49.466;8.468;2022-11-11T13:41:06;10.60;99.90
11112;DHT22;5609;49.466;8.468;2022-11-11T13:43:39;10.70;99.90
11112;DHT22;5609;49.466;8.468;2022-11-11T13:46:29;10.70;99.90
11112;DHT22;5609;49.466;8.468;2022-11-11T13:48:57;10.50;99.90
11112;DHT22;5609;49.466;8.468;2022-11-11T13:51:26;10.40;99.90
11112;DHT22;5609;49.466;8.468;2022-11-11T13:53:57;10.40;99.90
11112;DHT22;5609;49.466;8.468;2022-11-11T13:56:27;10.50;99.90
11112;DHT22;5609;49.466;8.468;2022-11-11T13:59:01;10.50;99.90
11112;DHT22;5609;49.466;8.468;2022-11-11T14:01:32;10.70;99.90
11112;DHT22;5609;49.466;8.468;2022-11-11T14:04:02;10.70;99.90
11112;DHT22;5609;49.466;8.468;2022-11-11T14:06:53;10.70;99.90
11112;DHT22;5609;49.466;8.468;2022-11-11T14:09:52;10.80;99.90
11112;DHT22;5609;49.466;8.468;2022-11-11T14:12:21;10.80;99.90
11112;DHT22;5609;49.466;8.468;2022-11-11T14:14:56;11.00;99.90
11112;DHT22;5609;49.466;8.468;2022-11-11T14:17:23;11.10;99.90
11112;DHT22;5609;49.466;8.468;2022-11-11T14:19:50;10.80;99.90
11112;DHT22;5609;49.466;8.468;2022-11-11T14:22:31;10.50;99.90
11112;DHT22;5609;49.466;8.468;2022-11-11T14:25:20;10.50;99.90
11112;DHT22;5609;49.466;8.468;2022-11-11T14:27:48;10.30;99.90
11112;DHT22;5609;49.466;8.468;2022-11-11T14:30:38;10.20;99.90
11112;DHT22;5609;49.466;8.468;2022-11-11T14:33:13;10.20;99.90
11112;DHT22;5609;49.466;8.468;2022-11-11T14:35:53;10.30;99.90
11112;DHT22;5609;49.466;8.468;2022-11-11T14:38:35;10.20;99.90
11112;DHT22;5609;49.466;8.468;2022-11-11T14:41:40;10.20;99.90
11112;DHT22;5609;49.466;8.468;2022-11-11T14:44:42;10.20;99.90
11112;DHT22;5609;49.466;8.468;2022-11-11T14:47:36;10.10;99.90
11112;DHT22;5609;49.466;8.468;2022-11-11T14:53:08;10.30;99.90
11112;DHT22;5609;49.466;8.468;2022-11-11T14:55:39;10.40;99.90
11112;DHT22;5609;49.466;8.468;2022-11-11T14:58:10;10.50;99.90
11112;DHT22;5609;49.466;8.468;2022-11-11T15:00:47;10.60;99.90
11112;DHT22;5609;49.466;8.468;2022-11-11T15:03:22;10.40;99.90
11112;DHT22;5609;49.466;8.468;2022-11-11T15:05:57;10.40;99.90
11112;DHT22;5609;49.466;8.468;2022-11-11T15:08:30;10.50;99.90
11112;DHT22;5609;49.466;8.468;2022-11-11T15:11:17;10.70;99.90
11112;DHT22;5609;49.466;8.468;2022-11-11T15:13:58;10.60;99.90
11112;DHT22;5609;49.466;8.468;2022-11-11T15:16:36;10.60;99.90
11112;DHT22;5609;49.466;8.468;2022-11-11T15:19:24;10.70;99.90
11112;DHT22;5609;49.466;8.468;2022-11-11T15:22:01;10.60;99.90
11112;DHT22;5609;49.466;8.468;2022-11-11T15:24:35;10.50;99.90
11112;DHT22;5609;49.466;8.468;2022-11-11T15:27:11;10.30;99.90
11112;DHT22;5609;49.466;8.468;2022-11-11T15:29:55;10.30;99.90
11112;DHT22;5609;49.466;8.468;2022-11-11T15:32:32;10.30;99.90
11112;DHT22;5609;49.466;8.468;2022-11-11T15:35:18;10.50;99.90
11112;DHT22;5609;49.466;8.468;2022-11-11T15:37:51;10.60;99.90
11112;DHT22;5609;49.466;8.468;2022-11-11T15:40:19;10.80;99.90
11112;DHT22;5609;49.466;8.468;2022-11-11T15:42:47;10.60;99.90
11112;DHT22;5609;49.466;8.468;2022-11-11T15:45:20;10.50;99.90
11112;DHT22;5609;49.466;8.468;2022-11-11T15:47:49;10.40;99.90
11112;DHT22;5609;49.466;8.468;2022-11-11T15:50:28;10.50;99.90
11112;DHT22;5609;49.466;8.468;2022-11-11T15:52:56;10.50;99.90
11112;DHT22;5609;49.466;8.468;2022-11-11T15:55:26;10.60;99.90
11112;DHT22;5609;49.466;8.468;2022-11-11T15:57:54;10.50;99.90
11112;DHT22;5609;49.466;8.468;2022-11-11T16:00:29;10.50;99.90
11112;DHT22;5609;49.466;8.468;2022-11-11T16:02:57;10.30;99.90
11112;DHT22;5609;49.466;8.468;2022-11-11T16:05:27;10.20;99.90
11112;DHT22;5609;49.466;8.468;2022-11-11T16:07:57;10.10;99.90
11112;DHT22;5609;49.466;8.468;2022-11-11T16:10:26;10.00;99.90
11112;DHT22;5609;49.466;8.468;2022-11-11T16:12:56;10.00;99.90
11112;DHT22;5609;49.466;8.468;2022-11-11T16:15:25;10.00;99.90
11112;DHT22;5609;49.466;8.468;2022-11-11T16:17:59;10.00;99.90
11112;DHT22;5609;49.466;8.468;2022-11-11T16:20:34;10.20;99.90
11112;DHT22;5609;49.466;8.468;2022-11-11T16:23:05;10.20;99.90
11112;DHT22;5609;49.466;8.468;2022-11-11T16:25:33;10.20;99.90